Huvudsida
METAR-TAF:

METAR-TAF

Flygplatser :

Ljungbyhed, Sverige

latitud: 56-04N, longitud: 013-12E, höjd: 43 m

Aktuellt väderrapport

Denna rapport gjordes för 27 minuter sedan, klockan 15:20 UTC
Vind 12 kt från syd
Temperatur 25°C
Fuktighet 47%
Tryck 1015 hPa
Sikt 10 km eller mer

METAR: ESTL 161520Z AUTO 18012KT 9999 NCD 25/13 Q1015

Tid: 17:47 (15:47 UTC)

Väderprognos

Denna rapport gjordes för 4 timmar och 49 minuter sedan, klockan 10:58 UTC
Prognos gäller från 16 kl. 12 UTC till 16 kl. 15 UTC
Vind 12 kt från syd/sydväst
Sikt 10 km eller mer
Spridda moln på en höjd av 4000 ft

TAF: ESTL 161058Z 1612/1615 20012KT 9999 SCT040

Aktuella väderrapporter och prognoser från 4000 flygplatser (METAR- och TAF-rapporter).

De tillgängliga stationerna syns som gula och röda prickar på kartan.

För musen över prickarna för att se namnen på stationerna.

Klicka sedan för att få väderrapporter och prognoser.

För att ändra kartan: Klicka på de gröna knapparna med ett svart kors på för att zooma in; den gröna knappen med ett streck på för att zooma ut; eller på de gröna pilarna för angränsande kartor.


METAR-TAF: